createdAt,value
2019-05-17T00:02:07.294Z,10.80
2019-05-17T00:04:36.370Z,8.03
2019-05-17T00:07:06.307Z,9.30
2019-05-17T00:09:33.778Z,9.37
2019-05-17T00:12:01.501Z,9.17
2019-05-17T00:14:29.323Z,10.53
2019-05-17T00:16:57.385Z,10.50
2019-05-17T00:19:26.321Z,8.77
2019-05-17T00:21:56.501Z,9.40
2019-05-17T00:24:26.367Z,8.23
2019-05-17T00:26:53.845Z,9.17
2019-05-17T00:29:21.610Z,8.53
2019-05-17T00:31:49.493Z,14.97
2019-05-17T00:34:17.432Z,7.53
2019-05-17T00:36:46.905Z,8.67
2019-05-17T00:39:16.659Z,10.90
2019-05-17T00:41:46.793Z,8.90
2019-05-17T00:44:13.836Z,12.10
2019-05-17T00:46:41.461Z,10.83
2019-05-17T00:49:09.149Z,12.80
2019-05-17T00:51:37.002Z,12.73
2019-05-17T00:54:06.786Z,9.20
2019-05-17T00:56:37.047Z,10.87
2019-05-17T00:59:04.385Z,11.23
2019-05-17T01:01:32.038Z,10.30
2019-05-17T01:03:59.919Z,11.03
2019-05-17T01:06:27.694Z,13.20
2019-05-17T01:09:01.567Z,10.57
2019-05-17T01:11:28.442Z,12.37
2019-05-17T01:13:58.509Z,8.70
2019-05-17T01:16:27.222Z,11.23
2019-05-17T01:18:57.193Z,9.67
2019-05-17T01:21:26.277Z,10.13
2019-05-17T01:23:56.112Z,9.77
2019-05-17T01:26:23.602Z,10.87
2019-05-17T01:28:51.331Z,9.30
2019-05-17T01:31:18.887Z,10.30
2019-05-17T01:33:47.123Z,11.67
2019-05-17T01:36:17.153Z,10.90
2019-05-17T01:38:46.762Z,16.77
2019-05-17T01:41:13.772Z,12.90
2019-05-17T01:43:41.432Z,11.40
2019-05-17T01:46:09.503Z,10.97
2019-05-17T01:48:37.112Z,9.40
2019-05-17T01:51:07.306Z,12.03
2019-05-17T01:53:36.390Z,12.40
2019-05-17T01:56:06.181Z,15.23
2019-05-17T01:58:33.613Z,11.97
2019-05-17T02:01:01.620Z,11.57
2019-05-17T02:03:29.709Z,12.10
2019-05-17T02:05:57.678Z,13.60
2019-05-17T02:08:26.452Z,13.13
2019-05-17T02:10:54.311Z,11.60
2019-05-17T02:13:22.929Z,11.27
2019-05-17T02:15:50.531Z,11.73
2019-05-17T02:18:18.165Z,12.27
2019-05-17T02:20:46.507Z,9.60
2019-05-17T02:23:14.575Z,9.83
2019-05-17T02:25:42.264Z,11.03
2019-05-17T02:28:12.091Z,12.03
2019-05-17T02:30:39.783Z,9.40
2019-05-17T02:33:07.900Z,9.17
2019-05-17T02:35:35.532Z,10.10
2019-05-17T02:38:04.859Z,10.93
2019-05-17T02:40:34.023Z,11.87
2019-05-17T02:43:03.230Z,14.57
2019-05-17T02:45:32.787Z,15.97
2019-05-17T02:48:03.829Z,16.20
2019-05-17T02:50:33.144Z,14.33
2019-05-17T02:53:04.164Z,15.60
2019-05-17T02:55:32.511Z,13.90
2019-05-17T02:58:03.131Z,16.67
2019-05-17T03:00:33.778Z,14.90
2019-05-17T03:03:03.380Z,15.27
2019-05-17T03:05:33.620Z,17.30
2019-05-17T03:08:03.594Z,14.00
2019-05-17T03:10:29.647Z,14.90
2019-05-17T03:12:57.367Z,15.80
2019-05-17T03:15:25.099Z,18.37
2019-05-17T03:17:53.837Z,18.30
2019-05-17T03:20:24.392Z,17.37
2019-05-17T03:22:52.823Z,18.33
2019-05-17T03:25:23.625Z,21.57
2019-05-17T03:27:53.362Z,17.43
2019-05-17T03:30:25.185Z,17.97
2019-05-17T03:32:55.546Z,20.00
2019-05-17T03:35:19.326Z,21.47
2019-05-17T03:37:47.041Z,22.53
2019-05-17T03:40:30.651Z,20.27
2019-05-17T03:42:44.915Z,22.47
2019-05-17T03:45:13.749Z,20.83
2019-05-17T03:47:44.350Z,17.70
2019-05-17T03:50:13.514Z,21.87
2019-05-17T03:52:44.584Z,17.47
2019-05-17T03:55:13.174Z,17.33
2019-05-17T03:57:43.626Z,21.57
2019-05-17T04:00:13.082Z,21.07
2019-05-17T04:02:39.523Z,20.13
2019-05-17T04:05:07.715Z,21.10
2019-05-17T04:07:36.427Z,19.67
2019-05-17T04:10:04.923Z,19.23
2019-05-17T04:12:32.885Z,18.93
2019-05-17T04:15:03.174Z,20.77
2019-05-17T04:17:32.771Z,23.07
2019-05-17T04:20:03.488Z,26.07
2019-05-17T04:22:32.868Z,23.20
2019-05-17T04:25:02.803Z,22.80
2019-05-17T04:27:29.290Z,24.30
2019-05-17T04:29:56.898Z,21.57
2019-05-17T04:32:24.513Z,24.63
2019-05-17T04:34:52.663Z,23.43
2019-05-17T04:37:22.928Z,24.43
2019-05-17T04:39:52.496Z,23.80
2019-05-17T04:42:22.429Z,27.90
2019-05-17T04:44:48.858Z,24.23
2019-05-17T04:47:16.549Z,22.60
2019-05-17T04:49:44.394Z,28.53
2019-05-17T04:52:13.780Z,25.43
2019-05-17T04:54:42.471Z,25.67
2019-05-17T04:57:13.118Z,26.57
2019-05-17T04:59:43.150Z,23.30
2019-05-17T05:02:09.415Z,25.87
2019-05-17T05:04:38.556Z,26.07
2019-05-17T05:07:07.549Z,28.83
2019-05-17T05:09:36.671Z,24.13
2019-05-17T05:12:06.304Z,27.83
2019-05-17T05:14:33.811Z,29.40
2019-05-17T05:17:02.546Z,32.97
2019-05-17T05:19:32.737Z,31.57
2019-05-17T05:22:04.045Z,33.07
2019-05-17T05:24:31.441Z,33.57
2019-05-17T05:26:59.020Z,37.30
2019-05-17T05:29:26.829Z,35.73
2019-05-17T05:31:54.461Z,40.90
2019-05-17T05:34:22.033Z,41.03
2019-05-17T05:36:49.719Z,37.63
2019-05-17T05:39:17.272Z,39.40
2019-05-17T05:41:44.937Z,40.13
2019-05-17T05:44:13.505Z,44.93
2019-05-17T05:46:42.176Z,44.70
2019-05-17T05:49:12.205Z,42.83
2019-05-17T05:51:39.598Z,46.47
2019-05-17T05:54:07.232Z,44.97
2019-05-17T05:56:34.764Z,40.17
2019-05-17T05:59:02.969Z,42.60
2019-05-17T06:01:32.619Z,41.27
2019-05-17T06:04:02.532Z,40.00
2019-05-17T06:06:32.051Z,41.40
2019-05-17T06:08:59.807Z,39.23
2019-05-17T06:11:27.469Z,36.83
2019-05-17T06:13:55.111Z,38.13
2019-05-17T06:16:22.904Z,34.37
2019-05-17T06:18:51.644Z,36.23
2019-05-17T06:21:19.366Z,43.10
2019-05-17T06:23:46.970Z,37.13
2019-05-17T06:26:17.886Z,32.80
2019-05-17T06:28:44.530Z,33.70
2019-05-17T06:31:15.038Z,30.93
2019-05-17T06:33:42.311Z,32.03
2019-05-17T06:36:09.880Z,33.00
2019-05-17T06:38:37.592Z,26.70
2019-05-17T06:41:05.486Z,28.87
2019-05-17T06:43:33.129Z,31.30
2019-05-17T06:46:02.108Z,26.13
2019-05-17T06:48:31.894Z,26.87
2019-05-17T06:50:59.541Z,25.33
2019-05-17T06:53:27.102Z,23.50
2019-05-17T06:55:54.766Z,23.77
2019-05-17T06:58:22.879Z,25.80
2019-05-17T07:00:50.832Z,23.80
2019-05-17T07:03:19.836Z,24.10
2019-05-17T07:05:50.262Z,23.47
2019-05-17T07:08:20.044Z,23.73
2019-05-17T07:10:50.201Z,20.60
2019-05-17T07:13:17.163Z,20.70
2019-05-17T07:15:47.979Z,21.20
2019-05-17T07:18:14.547Z,19.93
2019-05-17T07:20:42.478Z,19.80
2019-05-17T07:23:10.716Z,19.27
2019-05-17T07:25:39.665Z,21.43
2019-05-17T07:28:09.770Z,20.10
2019-05-17T07:30:39.700Z,20.07
2019-05-17T07:33:06.643Z,17.90
2019-05-17T07:35:34.612Z,17.30
2019-05-17T07:38:02.327Z,17.73
2019-05-17T07:40:30.403Z,18.73
2019-05-17T07:43:10.172Z,16.80
2019-05-17T07:45:29.565Z,19.27
2019-05-17T07:47:57.463Z,18.07
2019-05-17T07:50:25.067Z,18.13
2019-05-17T07:52:52.655Z,16.70
2019-05-17T07:55:22.896Z,15.63
2019-05-17T07:57:49.866Z,17.47
2019-05-17T08:00:20.098Z,17.03
2019-05-17T08:02:47.363Z,17.87
2019-05-17T08:05:15.393Z,23.90
2019-05-17T08:07:43.111Z,19.10
2019-05-17T08:10:11.500Z,19.40
2019-05-17T08:12:40.652Z,21.17
2019-05-17T08:15:10.786Z,17.13
2019-05-17T08:17:39.671Z,17.07
2019-05-17T08:20:10.085Z,17.10
2019-05-17T08:22:39.922Z,23.87
2019-05-17T08:25:09.877Z,24.57
2019-05-17T08:27:37.363Z,15.93
2019-05-17T08:30:05.854Z,15.43
2019-05-17T08:32:33.568Z,15.83
2019-05-17T08:35:01.145Z,16.13
2019-05-17T08:37:30.191Z,13.40
2019-05-17T08:40:00.137Z,18.97
2019-05-17T08:42:29.908Z,17.70
2019-05-17T08:44:57.103Z,20.07
2019-05-17T08:47:24.714Z,19.10
2019-05-17T08:49:52.377Z,17.43
2019-05-17T08:52:20.200Z,16.97
2019-05-17T08:54:49.595Z,16.00
2019-05-17T08:57:20.241Z,20.23
2019-05-17T08:59:49.587Z,20.60
2019-05-17T09:02:16.590Z,17.03
2019-05-17T09:04:44.167Z,19.53
2019-05-17T09:07:12.163Z,17.90
2019-05-17T09:09:39.939Z,15.53
2019-05-17T09:12:07.884Z,14.03
2019-05-17T09:14:35.690Z,19.90
2019-05-17T09:17:03.330Z,16.33
2019-05-17T09:19:31.189Z,16.23
2019-05-17T09:21:59.839Z,17.57
2019-05-17T09:24:29.899Z,17.60
2019-05-17T09:26:57.240Z,14.50
2019-05-17T09:29:24.907Z,14.73
2019-05-17T09:31:52.745Z,14.30
2019-05-17T09:34:20.480Z,15.97
2019-05-17T09:36:49.716Z,14.43
2019-05-17T09:39:17.572Z,16.00
2019-05-17T09:41:47.102Z,11.57
2019-05-17T09:44:16.320Z,16.77
2019-05-17T09:46:44.727Z,12.07
2019-05-17T09:49:12.843Z,12.93
2019-05-17T09:51:40.591Z,11.97
2019-05-17T09:54:10.290Z,10.83
2019-05-17T09:56:39.481Z,12.37
2019-05-17T09:59:09.756Z,10.43
2019-05-17T10:01:39.298Z,10.23
2019-05-17T10:04:06.576Z,12.17
2019-05-17T10:06:34.355Z,12.43
2019-05-17T10:09:02.125Z,10.40
2019-05-17T10:11:31.763Z,12.37
2019-05-17T10:14:01.310Z,11.60
2019-05-17T10:16:30.771Z,11.30
2019-05-17T10:19:09.600Z,12.13
2019-05-17T10:21:39.420Z,9.87
2019-05-17T10:24:09.416Z,10.13
2019-05-17T10:26:36.473Z,9.70
2019-05-17T10:29:04.281Z,12.30
2019-05-17T10:31:31.962Z,9.70
2019-05-17T10:34:01.074Z,8.23
2019-05-17T10:36:29.370Z,9.97
2019-05-17T10:38:59.199Z,9.67
2019-05-17T10:41:26.820Z,9.10
2019-05-17T10:43:54.788Z,7.83
2019-05-17T10:46:22.454Z,6.83
2019-05-17T10:48:50.226Z,10.73
2019-05-17T10:51:20.072Z,8.77
2019-05-17T10:53:47.552Z,8.20
2019-05-17T10:56:16.345Z,10.83
2019-05-17T10:58:44.189Z,7.83
2019-05-17T11:01:11.970Z,10.63
2019-05-17T11:03:39.897Z,9.50
2019-05-17T11:06:10.679Z,6.17
2019-05-17T11:08:37.264Z,8.37
2019-05-17T11:11:04.967Z,5.93
2019-05-17T11:13:32.552Z,8.80
2019-05-17T11:16:00.391Z,7.23
2019-05-17T11:18:27.980Z,8.80
2019-05-17T11:20:56.313Z,10.77
2019-05-17T11:23:23.997Z,10.37
2019-05-17T11:25:51.757Z,7.63
2019-05-17T11:28:19.417Z,6.13
2019-05-17T11:30:46.975Z,5.23
2019-05-17T11:33:14.481Z,9.70
2019-05-17T11:35:42.141Z,8.00
2019-05-17T11:38:09.803Z,8.63
2019-05-17T11:40:37.789Z,7.97
2019-05-17T11:43:05.905Z,7.60
2019-05-17T11:45:33.662Z,8.00
2019-05-17T11:48:01.411Z,8.00
2019-05-17T11:50:29.518Z,9.07
2019-05-17T11:52:57.679Z,5.47
2019-05-17T11:55:25.319Z,7.63
2019-05-17T11:57:53.189Z,7.73
2019-05-17T12:00:21.258Z,6.23
2019-05-17T12:02:49.038Z,5.97
2019-05-17T12:05:16.675Z,5.07
2019-05-17T12:07:44.620Z,7.33
2019-05-17T12:10:12.673Z,5.70
2019-05-17T12:12:40.394Z,26.47
2019-05-17T12:15:09.194Z,5.47
2019-05-17T12:17:36.783Z,8.03
2019-05-17T12:20:04.830Z,5.73
2019-05-17T12:22:32.524Z,4.83
2019-05-17T12:25:00.206Z,6.03
2019-05-17T12:27:28.248Z,6.30
2019-05-17T12:29:55.911Z,5.00
2019-05-17T12:32:23.863Z,6.07
2019-05-17T12:34:51.821Z,5.80
2019-05-17T12:37:19.869Z,6.07
2019-05-17T12:39:48.187Z,5.43
2019-05-17T12:42:15.713Z,4.73
2019-05-17T12:44:44.029Z,4.40
2019-05-17T12:47:11.694Z,4.00
2019-05-17T12:49:39.431Z,6.37
2019-05-17T12:52:07.334Z,7.27
2019-05-17T12:54:34.955Z,6.67
2019-05-17T12:57:04.662Z,3.57
2019-05-17T12:59:32.180Z,4.43
2019-05-17T13:01:59.811Z,3.20
2019-05-17T13:04:27.586Z,6.07
2019-05-17T13:06:55.290Z,4.17
2019-05-17T13:09:23.954Z,3.37
2019-05-17T13:11:51.721Z,4.33
2019-05-17T13:14:19.357Z,6.23
2019-05-17T13:16:46.932Z,3.43
2019-05-17T13:19:14.375Z,3.57
2019-05-17T13:21:42.108Z,3.83
2019-05-17T13:24:09.767Z,5.00
2019-05-17T13:26:37.436Z,4.37
2019-05-17T13:29:05.063Z,4.73
2019-05-17T13:31:32.760Z,4.13
2019-05-17T13:34:00.405Z,3.90
2019-05-17T13:36:28.119Z,4.13
2019-05-17T13:38:55.933Z,4.23
2019-05-17T13:41:24.065Z,8.23
2019-05-17T13:43:51.770Z,3.60
2019-05-17T13:46:32.052Z,3.70
2019-05-17T13:48:49.032Z,4.17
2019-05-17T13:51:17.111Z,3.63
2019-05-17T13:53:44.898Z,4.20
2019-05-17T13:56:12.515Z,3.37
2019-05-17T13:58:40.211Z,8.27
2019-05-17T14:01:08.086Z,3.13
2019-05-17T14:03:35.802Z,3.73
2019-05-17T14:06:03.581Z,4.83
2019-05-17T14:08:31.319Z,6.03
2019-05-17T14:10:58.996Z,4.00
2019-05-17T14:13:26.646Z,3.90
2019-05-17T14:15:54.380Z,3.97
2019-05-17T14:18:22.126Z,5.03
2019-05-17T14:20:49.880Z,3.70
2019-05-17T14:23:17.606Z,5.87
2019-05-17T14:25:45.364Z,4.57
2019-05-17T14:28:13.021Z,3.30
2019-05-17T14:30:41.204Z,4.30
2019-05-17T14:33:09.892Z,3.83
2019-05-17T14:35:37.469Z,3.70
2019-05-17T14:38:05.164Z,4.10
2019-05-17T14:41:03.945Z,6.03
2019-05-17T14:43:02.515Z,3.00
2019-05-17T14:45:30.236Z,3.67
2019-05-17T14:47:57.762Z,4.83
2019-05-17T14:50:25.339Z,4.83
2019-05-17T14:52:52.962Z,5.90
2019-05-17T14:55:21.641Z,8.67
2019-05-17T14:57:49.605Z,5.63
2019-05-17T15:00:17.409Z,8.00
2019-05-17T15:02:45.276Z,2.30
2019-05-17T15:05:13.058Z,1.70
2019-05-17T15:07:40.942Z,2.90
2019-05-17T15:10:10.954Z,2.60
2019-05-17T15:12:38.759Z,2.47
2019-05-17T15:15:07.084Z,4.60
2019-05-17T15:17:35.423Z,6.40
2019-05-17T15:23:51.248Z,3.53
2019-05-17T15:27:11.049Z,6.93
2019-05-17T15:29:51.523Z,5.33
2019-05-17T15:32:46.733Z,5.87
2019-05-17T15:35:34.341Z,2.33
2019-05-17T15:38:06.841Z,4.03
2019-05-17T15:40:59.569Z,5.20
2019-05-17T15:43:27.421Z,8.07
2019-05-17T15:45:55.059Z,7.53
2019-05-17T15:48:22.797Z,4.93
2019-05-17T15:50:50.532Z,6.37
2019-05-17T15:53:18.127Z,3.33
2019-05-17T15:55:45.994Z,4.17
2019-05-17T15:58:13.901Z,3.63
2019-05-17T16:00:42.193Z,4.07
2019-05-17T16:03:10.348Z,3.17
2019-05-17T16:05:38.941Z,6.23
2019-05-17T16:08:07.112Z,3.43
2019-05-17T16:10:35.182Z,2.50
2019-05-17T16:13:03.681Z,4.83
2019-05-17T16:15:31.039Z,5.90
2019-05-17T16:17:58.295Z,3.37
2019-05-17T16:20:26.752Z,4.67
2019-05-17T16:22:54.098Z,7.40
2019-05-17T16:25:21.463Z,7.07
2019-05-17T16:27:49.542Z,5.50
2019-05-17T16:30:16.932Z,4.97
2019-05-17T16:32:44.526Z,5.63
2019-05-17T16:35:11.982Z,7.50
2019-05-17T16:37:40.686Z,4.23
2019-05-17T16:40:08.738Z,4.03
2019-05-17T16:42:35.982Z,6.07
2019-05-17T16:45:05.090Z,4.60
2019-05-17T16:47:32.843Z,5.00
2019-05-17T16:50:00.097Z,4.57
2019-05-17T16:52:27.737Z,4.93
2019-05-17T16:54:55.121Z,6.80
2019-05-17T16:57:22.437Z,8.87
2019-05-17T16:59:49.697Z,7.33
2019-05-17T17:02:16.927Z,7.90
2019-05-17T17:04:44.293Z,7.50
2019-05-17T17:07:11.587Z,9.07
2019-05-17T17:09:38.929Z,4.93
2019-05-17T17:12:07.362Z,5.60
2019-05-17T17:14:34.855Z,5.63
2019-05-17T17:17:09.145Z,8.30
2019-05-17T17:19:31.474Z,9.23
2019-05-17T17:21:58.866Z,8.87
2019-05-17T17:24:26.198Z,9.07
2019-05-17T17:26:53.581Z,9.57
2019-05-17T17:29:20.826Z,4.90
2019-05-17T17:31:48.232Z,6.33
2019-05-17T17:34:15.830Z,4.80
2019-05-17T17:36:43.118Z,5.83
2019-05-17T17:39:10.351Z,5.50
2019-05-17T17:41:38.051Z,5.00
2019-05-17T17:44:05.396Z,5.27
2019-05-17T17:46:32.906Z,10.60
2019-05-17T17:49:00.443Z,7.23
2019-05-17T17:51:27.961Z,7.33
2019-05-17T17:53:55.523Z,7.80
2019-05-17T17:56:23.013Z,7.37
2019-05-17T17:58:50.411Z,8.00
2019-05-17T18:01:17.791Z,7.47
2019-05-17T18:03:45.186Z,13.50
2019-05-17T18:06:12.562Z,9.33
2019-05-17T18:08:40.286Z,7.63
2019-05-17T18:11:07.571Z,9.77
2019-05-17T18:13:34.822Z,8.07
2019-05-17T18:16:02.092Z,11.10
2019-05-17T18:18:29.272Z,7.77
2019-05-17T18:20:56.499Z,7.27
2019-05-17T18:23:23.791Z,6.10
2019-05-17T18:25:51.222Z,7.90
2019-05-17T18:28:19.422Z,6.90
2019-05-17T18:30:46.710Z,6.67
2019-05-17T18:33:14.171Z,7.07
2019-05-17T18:35:41.585Z,11.80
2019-05-17T18:38:09.143Z,7.57
2019-05-17T18:40:37.554Z,6.47
2019-05-17T18:43:04.772Z,4.37
2019-05-17T18:45:32.062Z,4.47
2019-05-17T18:47:59.758Z,4.37
2019-05-17T18:50:27.574Z,7.57
2019-05-17T18:52:55.189Z,5.57
2019-05-17T18:55:23.857Z,4.97
2019-05-17T18:57:51.323Z,5.53
2019-05-17T19:00:18.953Z,5.67
2019-05-17T19:02:46.314Z,4.70
2019-05-17T19:05:15.727Z,7.67
2019-05-17T19:07:43.404Z,8.73
2019-05-17T19:10:11.594Z,6.73
2019-05-17T19:12:38.878Z,11.27
2019-05-17T19:15:06.664Z,5.93
2019-05-17T19:17:34.431Z,5.57
2019-05-17T19:20:01.645Z,6.73
2019-05-17T19:22:29.093Z,7.00
2019-05-17T19:24:56.537Z,9.63
2019-05-17T19:27:24.053Z,6.93
2019-05-17T19:29:51.428Z,6.47
2019-05-17T19:32:19.063Z,8.43
2019-05-17T19:34:46.560Z,8.50
2019-05-17T19:37:13.929Z,8.90
2019-05-17T19:39:41.439Z,11.50
2019-05-17T19:42:08.983Z,11.67
2019-05-17T19:44:36.329Z,9.10
2019-05-17T19:47:03.806Z,10.40
2019-05-17T19:49:31.359Z,11.67
2019-05-17T19:51:59.001Z,13.07
2019-05-17T19:54:26.634Z,13.23
2019-05-17T19:56:54.065Z,12.30
2019-05-17T19:59:21.532Z,9.37
2019-05-17T20:01:49.320Z,7.83
2019-05-17T20:04:16.558Z,10.70
2019-05-17T20:06:44.234Z,8.60
2019-05-17T20:09:12.178Z,9.43
2019-05-17T20:11:39.724Z,7.80
2019-05-17T20:14:07.015Z,6.37
2019-05-17T20:16:34.720Z,10.30
2019-05-17T20:19:02.053Z,9.20
2019-05-17T20:21:30.428Z,8.77
2019-05-17T20:23:57.621Z,7.07
2019-05-17T20:26:25.186Z,9.67
2019-05-17T20:28:52.510Z,7.63
2019-05-17T20:31:19.889Z,7.77
2019-05-17T20:33:47.287Z,8.83
2019-05-17T20:36:14.701Z,9.37
2019-05-17T20:38:42.962Z,7.27
2019-05-17T20:41:10.340Z,7.83
2019-05-17T20:43:37.887Z,6.93
2019-05-17T20:46:05.337Z,8.23
2019-05-17T20:48:32.674Z,8.43
2019-05-17T20:50:59.975Z,9.03
2019-05-17T20:53:28.568Z,6.93
2019-05-17T20:55:56.303Z,7.80
2019-05-17T20:58:23.677Z,7.47
2019-05-17T21:00:51.142Z,10.27
2019-05-17T21:03:18.360Z,10.23
2019-05-17T21:05:45.748Z,10.23
2019-05-17T21:08:14.296Z,9.73
2019-05-17T21:10:41.915Z,9.07
2019-05-17T21:13:09.217Z,6.97
2019-05-17T21:15:47.346Z,7.70
2019-05-17T21:18:05.753Z,6.90
2019-05-17T21:20:33.141Z,6.00
2019-05-17T21:23:00.765Z,6.37
2019-05-17T21:25:28.052Z,7.37
2019-05-17T21:27:55.473Z,7.20
2019-05-17T21:30:22.830Z,6.87
2019-05-17T21:32:50.081Z,6.93
2019-05-17T21:35:17.401Z,7.90
2019-05-17T21:37:44.791Z,7.97
2019-05-17T21:40:12.453Z,8.90
2019-05-17T21:42:39.642Z,6.03
2019-05-17T21:45:07.485Z,5.53
2019-05-17T21:47:34.692Z,9.20
2019-05-17T21:50:02.149Z,8.47
2019-05-17T21:52:29.502Z,9.40
2019-05-17T21:54:56.904Z,18.77
2019-05-17T21:57:24.269Z,10.27
2019-05-17T21:59:51.495Z,10.40
2019-05-17T22:02:19.050Z,7.37
2019-05-17T22:04:46.356Z,7.53
2019-05-17T22:07:13.706Z,7.60
2019-05-17T22:09:41.134Z,7.63
2019-05-17T22:12:10.189Z,8.23
2019-05-17T22:14:37.443Z,8.27
2019-05-17T22:17:04.779Z,7.70
2019-05-17T22:19:32.160Z,8.80
2019-05-17T22:21:59.428Z,8.90
2019-05-17T22:24:26.757Z,5.87
2019-05-17T22:26:54.038Z,9.53
2019-05-17T22:29:21.803Z,5.97
2019-05-17T22:31:49.032Z,6.93
2019-05-17T22:34:16.433Z,7.87
2019-05-17T22:36:43.848Z,6.77
2019-05-17T22:39:11.173Z,7.37
2019-05-17T22:41:38.698Z,6.73
2019-05-17T22:44:06.033Z,7.50
2019-05-17T22:46:36.343Z,7.87
2019-05-17T22:49:03.795Z,7.33
2019-05-17T22:51:31.019Z,7.53
2019-05-17T22:53:58.309Z,7.53
2019-05-17T22:56:26.038Z,7.23
2019-05-17T22:58:53.227Z,7.90
2019-05-17T23:01:20.762Z,10.60
2019-05-17T23:03:48.097Z,8.23
2019-05-17T23:06:15.292Z,9.83
2019-05-17T23:08:42.886Z,9.27
2019-05-17T23:11:10.274Z,9.63
2019-05-17T23:13:37.877Z,9.70
2019-05-17T23:16:09.314Z,12.57
2019-05-17T23:18:36.702Z,10.07
2019-05-17T23:21:04.280Z,12.57
2019-05-17T23:23:31.990Z,10.23
2019-05-17T23:26:00.157Z,8.77
2019-05-17T23:28:27.551Z,14.70
2019-05-17T23:30:55.188Z,10.17
2019-05-17T23:33:22.574Z,7.87
2019-05-17T23:35:49.874Z,11.17
2019-05-17T23:38:17.257Z,8.47
2019-05-17T23:40:44.731Z,10.07
2019-05-17T23:43:12.004Z,10.70
2019-05-17T23:45:40.765Z,12.40
2019-05-17T23:48:08.220Z,8.63
2019-05-17T23:50:35.643Z,8.00
2019-05-17T23:53:03.097Z,13.37
2019-05-17T23:55:30.467Z,7.70
2019-05-17T23:57:57.680Z,12.80
